Terminal Aerodrome Forecast
Issued by NWS

Home | Current Version | Previous Version | Text Only | Print | Product List | Glossary On
Versions: 1 2 3 4 5 6 7 8 9 10 11 12 13 14 15 16 17 18 19
000
FTUS41 KBGM 260500
TAFITH
TAF
KITH 260520Z 2606/2706 23004KT P6SM BKN200
     FM261500 24008KT P6SM BKN090
     FM261800 24007KT P6SM BKN050
     FM270100 15004KT P6SM OVC100=

USA.gov is the U.S. government's official web portal to all federal, state and local government web resources and services.